Silver Fox — WDF8008 — position and weather

sailwx.info

Track history (hours):
 
Tides and Currents Weather Stations Pressure Air Temp Water Temp Dewpoint Dewpoint Depression Visibility Wind Speed Wind Dir Waves Ship Positions

Silver Fox

Owner: HR Marine Group LLC, katy, TX. More information available from US FCC via Universal Licensing System and Coast Guard Vessel Documentation Center.

Last reported at 2017-Nov-04 14:06 UTC. Time now 2017-Nov-22 03:45 UTC.
Position N 26°04' W 079°49'.
Warning: this ship's position is 17 days out of date.

Length 35 m.

Type: Pleasure craft. MMSI: 367490420.

Date/timePositionNaut miles runAvg speedWind from/ knotsBaromVisibWave heightAir tempDewpointWater temp
2017-Nov-04 14:06N 26°04' W 079°49'1 9.4
2017-Nov-04 13:57N 26°05' W 079°51'7 9.5
2017-Nov-04 13:14N 26°10' W 079°56'3 9.4
2017-Nov-04 12:55N 26°11' W 079°59'610.1
2017-Nov-04 12:22N 26°15' W 080°04'2 0.1
2017-Nov-03 13:04N 26°14' W 080°06'0 0.0
2017-Nov-03 12:43N 26°14' W 080°06'0 0.0
2017-Nov-03 11:46N 26°14' W 080°06'0 0.0
2017-Nov-03 11:19N 26°14' W 080°06'0 0.0
2017-Nov-03 08:10N 26°14' W 080°06'0 0.0
2017-Nov-03 07:52N 26°14' W 080°06'  
Track history (hours):
 
Tides and Currents Weather Stations Pressure Air Temp Water Temp Dewpoint Dewpoint Depression Visibility Wind Speed Wind Dir Waves Ship Positions

Silver Fox

Owner: HR Marine Group LLC, katy, TX. More information available from US FCC via Universal Licensing System and Coast Guard Vessel Documentation Center.

Last reported at 2017-Nov-04 14:06 UTC. Time now 2017-Nov-22 03:45 UTC.
Position N 26°04' W 079°49'.
Warning: this ship's position is 17 days out of date.

Length 35 m.

Type: Pleasure craft. MMSI: 367490420.

Date/timePositionNaut miles runAvg speedWind from/ knotsBaromVisibWave heightAir tempDewpointWater temp
2017-Nov-04 14:06N 26°04' W 079°49'1 9.4
2017-Nov-04 13:57N 26°05' W 079°51'7 9.5
2017-Nov-04 13:14N 26°10' W 079°56'3 9.4
2017-Nov-04 12:55N 26°11' W 079°59'610.1
2017-Nov-04 12:22N 26°15' W 080°04'2 0.1
2017-Nov-03 13:04N 26°14' W 080°06'0 0.0
2017-Nov-03 12:43N 26°14' W 080°06'0 0.0
2017-Nov-03 11:46N 26°14' W 080°06'0 0.0
2017-Nov-03 11:19N 26°14' W 080°06'0 0.0
2017-Nov-03 08:10N 26°14' W 080°06'0 0.0
2017-Nov-03 07:52N 26°14' W 080°06'  

Dump ship's entire track history